Hasabi II — ZCPG3 — position and weather

sailwx.info

Track history (hours):
 
Tides and Currents Weather Stations Pressure Air Temp Water Temp Dewpoint Dewpoint Depression Visibility Wind Speed Wind Dir Waves Ship Positions

Hasabi II

Last reported at 2016-Aug-05 14:33 UTC. Time now 2016-Aug-27 22:19 UTC.
Position N 37°58' E 021°07'.
Warning: this ship's position is 22 days out of date.

Length 58 m; draft 3 m.

Type: Ship (hazmat cat C). MMSI: 319022000.

Date/timePositionNaut miles runAvg speedWind from/ knotsBaromVisibWave heightAir tempDewpointWater temp
2016-Aug-05 14:33N 37°58' E 021°07'1010.1
2016-Aug-05 13:33N 38°05' E 021°16'6 5.6
2016-Aug-05 12:33N 38°09' E 021°22'0 0.0
2016-Aug-05 11:33N 38°09' E 021°22'0 0.0
2016-Aug-05 10:30N 38°09' E 021°22'0 0.0
2016-Aug-05 09:29N 38°09' E 021°22'0 0.0
2016-Aug-05 08:33N 38°09' E 021°22'79 1.6
2016-Aug-03 06:08N 37°55' E 023°01'15 9.0
2016-Aug-03 04:30N 37°51' E 023°19'1010.0
2016-Aug-03 03:33N 37°50' E 023°31'9 9.0
2016-Aug-03 02:33N 37°56' E 023°39'0 0.0
2016-Aug-03 01:33N 37°56' E 023°39'0 0.0
2016-Aug-03 00:33N 37°56' E 023°39'0 0.0
2016-Aug-02 23:34N 37°56' E 023°39'0 0.0
2016-Aug-02 22:33N 37°56' E 023°39'0 0.0
2016-Aug-02 21:33N 37°56' E 023°39'0 0.0
2016-Aug-02 20:33N 37°56' E 023°39'0 0.0
2016-Aug-02 19:33N 37°56' E 023°39'0 0.0
2016-Aug-02 18:33N 37°56' E 023°39'0 0.0
2016-Aug-02 17:33N 37°56' E 023°39'0 0.0
2016-Aug-02 16:33N 37°56' E 023°39'0 0.0
2016-Aug-02 15:33N 37°56' E 023°39'0 0.0
2016-Aug-02 14:33N 37°56' E 023°39'0 0.0
2016-Aug-02 13:33N 37°56' E 023°39'0 0.0
2016-Aug-02 12:34N 37°56' E 023°39'0 0.0
2016-Aug-02 11:33N 37°56' E 023°39'0 0.0
2016-Aug-02 10:33N 37°56' E 023°39'0 0.0
2016-Aug-02 09:33N 37°56' E 023°39'0 0.0
2016-Aug-02 08:33N 37°56' E 023°39'0 0.0
2016-Aug-02 07:33N 37°56' E 023°39'0 0.0
2016-Aug-02 06:34N 37°56' E 023°39'0 0.0
2016-Aug-02 04:33N 37°56' E 023°39'0 0.0
2016-Aug-02 03:33N 37°56' E 023°39'0 0.0
2016-Aug-02 02:33N 37°56' E 023°39'0 0.0
2016-Aug-02 01:33N 37°56' E 023°39'0 0.0
2016-Aug-02 00:33N 37°56' E 023°39'0 0.0
2016-Aug-01 23:34N 37°56' E 023°39'0 0.0
2016-Aug-01 22:34N 37°56' E 023°39'0 0.0
2016-Aug-01 21:33N 37°56' E 023°39'0 0.0
2016-Aug-01 20:33N 37°56' E 023°39'0 0.0
2016-Aug-01 19:34N 37°56' E 023°39'0 0.0
2016-Aug-01 18:33N 37°56' E 023°39'0 0.0
2016-Aug-01 17:33N 37°56' E 023°39'0 0.0
2016-Aug-01 16:33N 37°56' E 023°39'0 0.0
2016-Aug-01 15:33N 37°56' E 023°39'0 0.0
2016-Aug-01 14:33N 37°56' E 023°39'0 0.0
2016-Aug-01 13:33N 37°56' E 023°39'0 0.0
2016-Aug-01 12:33N 37°56' E 023°39'0 0.0
2016-Aug-01 11:33N 37°56' E 023°39'0 0.0
2016-Aug-01 10:33N 37°56' E 023°39'0 0.0
2016-Aug-01 09:33N 37°56' E 023°39'0 0.0
2016-Aug-01 08:33N 37°56' E 023°39'0 0.0
2016-Aug-01 07:33N 37°56' E 023°39'0 0.0
2016-Aug-01 05:33N 37°56' E 023°39'0 0.0
2016-Aug-01 04:33N 37°56' E 023°39'0 0.0
2016-Aug-01 03:33N 37°56' E 023°39'0 0.0
2016-Aug-01 02:33N 37°56' E 023°39'0 0.0
2016-Aug-01 01:34N 37°56' E 023°39'0 0.0
2016-Aug-01 00:33N 37°56' E 023°39'0 0.0
2016-Jul-31 23:33N 37°56' E 023°39'0 0.0
2016-Jul-31 22:34N 37°56' E 023°39'0 0.0
2016-Jul-31 21:33N 37°56' E 023°39'0 0.0
2016-Jul-31 20:33N 37°56' E 023°39'0 0.0
2016-Jul-31 19:33N 37°56' E 023°39'0 0.0
2016-Jul-31 18:33N 37°56' E 023°39'0 0.0
2016-Jul-31 17:33N 37°56' E 023°39'0 0.0
2016-Jul-31 16:33N 37°56' E 023°39'0 0.0
2016-Jul-31 15:33N 37°56' E 023°39'0 0.0
2016-Jul-31 14:33N 37°56' E 023°39'0 0.0
2016-Jul-31 13:33N 37°56' E 023°39'0 0.0
2016-Jul-31 12:33N 37°56' E 023°39'0 0.0
2016-Jul-31 11:33N 37°56' E 023°39'0 0.0
2016-Jul-31 10:34N 37°56' E 023°39'0 0.0
2016-Jul-31 09:33N 37°56' E 023°39'1 1.1
2016-Jul-31 08:33N 37°55' E 023°38'4 3.9
2016-Jul-31 07:33N 37°58' E 023°34'0 0.0
2016-Jul-31 06:33N 37°58' E 023°34'  
2016-Jul-28 08:33N 37°58' E 023°34'6 6.1
2016-Jul-28 07:33N 37°53' E 023°40'7 7.4
2016-Jul-28 06:33N 37°48' E 023°47'0 0.0
2016-Jul-28 05:33N 37°48' E 023°47'0 0.0
2016-Jul-28 04:32N 37°48' E 023°47'0 0.0
2016-Jul-28 03:33N 37°48' E 023°47'0 0.0
2016-Jul-28 02:33N 37°48' E 023°47'0 0.0
2016-Jul-28 01:33N 37°48' E 023°47'0 0.0
2016-Jul-28 00:33N 37°48' E 023°47'0 0.0
2016-Jul-27 23:33N 37°48' E 023°47'0 0.0
2016-Jul-27 22:33N 37°48' E 023°47'0 0.0
2016-Jul-27 21:33N 37°48' E 023°47'0 0.0
2016-Jul-27 20:33N 37°48' E 023°47'0 0.0
2016-Jul-27 19:33N 37°48' E 023°47'0 0.0
2016-Jul-27 18:34N 37°48' E 023°47'0 0.0
2016-Jul-27 17:33N 37°48' E 023°47'1 0.8
2016-Jul-27 16:33N 37°49' E 023°46'0 0.0
2016-Jul-27 15:33N 37°49' E 023°46'0 0.0
2016-Jul-27 14:33N 37°49' E 023°46'0 0.0
2016-Jul-27 13:33N 37°49' E 023°46'0 0.0
2016-Jul-27 12:33N 37°49' E 023°46'0 0.0
2016-Jul-27 11:33N 37°49' E 023°46'0 0.0
2016-Jul-27 10:33N 37°49' E 023°46'0 0.0
2016-Jul-27 09:33N 37°49' E 023°46'0 0.0
2016-Jul-27 08:33N 37°49' E 023°46'0 0.0
2016-Jul-27 07:33N 37°49' E 023°46'0 0.0
2016-Jul-27 06:33N 37°49' E 023°46'0 0.0
2016-Jul-27 05:33N 37°49' E 023°46'0 0.0
2016-Jul-27 04:33N 37°49' E 023°46'0 0.0
2016-Jul-27 03:33N 37°49' E 023°46'0 0.0
2016-Jul-27 02:33N 37°49' E 023°46'0 0.0
2016-Jul-27 01:33N 37°49' E 023°46'0 0.0
2016-Jul-27 00:33N 37°49' E 023°46'0 0.0
2016-Jul-26 23:33N 37°49' E 023°46'0 0.0
2016-Jul-26 22:33N 37°49' E 023°46'0 0.0
2016-Jul-26 21:33N 37°49' E 023°46'0 0.0
2016-Jul-26 20:33N 37°49' E 023°46'0 0.0
2016-Jul-26 19:33N 37°49' E 023°46'0 0.0
2016-Jul-26 18:33N 37°49' E 023°46'0 0.0
2016-Jul-26 17:33N 37°49' E 023°46'5 4.7
2016-Jul-26 16:33N 37°44' E 023°45'10 9.7
2016-Jul-26 15:33N 37°35' E 023°39'  
Track history (hours):
 
Tides and Currents Weather Stations Pressure Air Temp Water Temp Dewpoint Dewpoint Depression Visibility Wind Speed Wind Dir Waves Ship Positions

Hasabi II

Last reported at 2016-Aug-05 14:33 UTC. Time now 2016-Aug-27 22:19 UTC.
Position N 37°58' E 021°07'.
Warning: this ship's position is 22 days out of date.

Length 58 m; draft 3 m.

Type: Ship (hazmat cat C). MMSI: 319022000.

Date/timePositionNaut miles runAvg speedWind from/ knotsBaromVisibWave heightAir tempDewpointWater temp
2016-Aug-05 14:33N 37°58' E 021°07'1010.1
2016-Aug-05 13:33N 38°05' E 021°16'6 5.6
2016-Aug-05 12:33N 38°09' E 021°22'0 0.0
2016-Aug-05 11:33N 38°09' E 021°22'0 0.0
2016-Aug-05 10:30N 38°09' E 021°22'0 0.0
2016-Aug-05 09:29N 38°09' E 021°22'0 0.0
2016-Aug-05 08:33N 38°09' E 021°22'79 1.6
2016-Aug-03 06:08N 37°55' E 023°01'15 9.0
2016-Aug-03 04:30N 37°51' E 023°19'1010.0
2016-Aug-03 03:33N 37°50' E 023°31'9 9.0
2016-Aug-03 02:33N 37°56' E 023°39'0 0.0
2016-Aug-03 01:33N 37°56' E 023°39'0 0.0
2016-Aug-03 00:33N 37°56' E 023°39'0 0.0
2016-Aug-02 23:34N 37°56' E 023°39'0 0.0
2016-Aug-02 22:33N 37°56' E 023°39'0 0.0
2016-Aug-02 21:33N 37°56' E 023°39'0 0.0
2016-Aug-02 20:33N 37°56' E 023°39'0 0.0
2016-Aug-02 19:33N 37°56' E 023°39'0 0.0
2016-Aug-02 18:33N 37°56' E 023°39'0 0.0
2016-Aug-02 17:33N 37°56' E 023°39'0 0.0
2016-Aug-02 16:33N 37°56' E 023°39'0 0.0
2016-Aug-02 15:33N 37°56' E 023°39'0 0.0
2016-Aug-02 14:33N 37°56' E 023°39'0 0.0
2016-Aug-02 13:33N 37°56' E 023°39'0 0.0
2016-Aug-02 12:34N 37°56' E 023°39'0 0.0
2016-Aug-02 11:33N 37°56' E 023°39'0 0.0
2016-Aug-02 10:33N 37°56' E 023°39'0 0.0
2016-Aug-02 09:33N 37°56' E 023°39'0 0.0
2016-Aug-02 08:33N 37°56' E 023°39'0 0.0
2016-Aug-02 07:33N 37°56' E 023°39'0 0.0
2016-Aug-02 06:34N 37°56' E 023°39'0 0.0
2016-Aug-02 04:33N 37°56' E 023°39'0 0.0
2016-Aug-02 03:33N 37°56' E 023°39'0 0.0
2016-Aug-02 02:33N 37°56' E 023°39'0 0.0
2016-Aug-02 01:33N 37°56' E 023°39'0 0.0
2016-Aug-02 00:33N 37°56' E 023°39'0 0.0
2016-Aug-01 23:34N 37°56' E 023°39'0 0.0
2016-Aug-01 22:34N 37°56' E 023°39'0 0.0
2016-Aug-01 21:33N 37°56' E 023°39'0 0.0
2016-Aug-01 20:33N 37°56' E 023°39'0 0.0
2016-Aug-01 19:34N 37°56' E 023°39'0 0.0
2016-Aug-01 18:33N 37°56' E 023°39'0 0.0
2016-Aug-01 17:33N 37°56' E 023°39'0 0.0
2016-Aug-01 16:33N 37°56' E 023°39'0 0.0
2016-Aug-01 15:33N 37°56' E 023°39'0 0.0
2016-Aug-01 14:33N 37°56' E 023°39'0 0.0
2016-Aug-01 13:33N 37°56' E 023°39'0 0.0
2016-Aug-01 12:33N 37°56' E 023°39'0 0.0
2016-Aug-01 11:33N 37°56' E 023°39'0 0.0
2016-Aug-01 10:33N 37°56' E 023°39'0 0.0
2016-Aug-01 09:33N 37°56' E 023°39'0 0.0
2016-Aug-01 08:33N 37°56' E 023°39'0 0.0
2016-Aug-01 07:33N 37°56' E 023°39'0 0.0
2016-Aug-01 05:33N 37°56' E 023°39'0 0.0
2016-Aug-01 04:33N 37°56' E 023°39'0 0.0
2016-Aug-01 03:33N 37°56' E 023°39'0 0.0
2016-Aug-01 02:33N 37°56' E 023°39'0 0.0
2016-Aug-01 01:34N 37°56' E 023°39'0 0.0
2016-Aug-01 00:33N 37°56' E 023°39'0 0.0
2016-Jul-31 23:33N 37°56' E 023°39'0 0.0
2016-Jul-31 22:34N 37°56' E 023°39'0 0.0
2016-Jul-31 21:33N 37°56' E 023°39'0 0.0
2016-Jul-31 20:33N 37°56' E 023°39'0 0.0
2016-Jul-31 19:33N 37°56' E 023°39'0 0.0
2016-Jul-31 18:33N 37°56' E 023°39'0 0.0
2016-Jul-31 17:33N 37°56' E 023°39'0 0.0
2016-Jul-31 16:33N 37°56' E 023°39'0 0.0
2016-Jul-31 15:33N 37°56' E 023°39'0 0.0
2016-Jul-31 14:33N 37°56' E 023°39'0 0.0
2016-Jul-31 13:33N 37°56' E 023°39'0 0.0
2016-Jul-31 12:33N 37°56' E 023°39'0 0.0
2016-Jul-31 11:33N 37°56' E 023°39'0 0.0
2016-Jul-31 10:34N 37°56' E 023°39'0 0.0
2016-Jul-31 09:33N 37°56' E 023°39'1 1.1
2016-Jul-31 08:33N 37°55' E 023°38'4 3.9
2016-Jul-31 07:33N 37°58' E 023°34'0 0.0
2016-Jul-31 06:33N 37°58' E 023°34'  
2016-Jul-28 08:33N 37°58' E 023°34'6 6.1
2016-Jul-28 07:33N 37°53' E 023°40'7 7.4
2016-Jul-28 06:33N 37°48' E 023°47'0 0.0
2016-Jul-28 05:33N 37°48' E 023°47'0 0.0
2016-Jul-28 04:32N 37°48' E 023°47'0 0.0
2016-Jul-28 03:33N 37°48' E 023°47'0 0.0
2016-Jul-28 02:33N 37°48' E 023°47'0 0.0
2016-Jul-28 01:33N 37°48' E 023°47'0 0.0
2016-Jul-28 00:33N 37°48' E 023°47'0 0.0
2016-Jul-27 23:33N 37°48' E 023°47'0 0.0
2016-Jul-27 22:33N 37°48' E 023°47'0 0.0
2016-Jul-27 21:33N 37°48' E 023°47'0 0.0
2016-Jul-27 20:33N 37°48' E 023°47'0 0.0
2016-Jul-27 19:33N 37°48' E 023°47'0 0.0
2016-Jul-27 18:34N 37°48' E 023°47'0 0.0
2016-Jul-27 17:33N 37°48' E 023°47'1 0.8
2016-Jul-27 16:33N 37°49' E 023°46'0 0.0
2016-Jul-27 15:33N 37°49' E 023°46'0 0.0
2016-Jul-27 14:33N 37°49' E 023°46'0 0.0
2016-Jul-27 13:33N 37°49' E 023°46'0 0.0
2016-Jul-27 12:33N 37°49' E 023°46'0 0.0
2016-Jul-27 11:33N 37°49' E 023°46'0 0.0
2016-Jul-27 10:33N 37°49' E 023°46'0 0.0
2016-Jul-27 09:33N 37°49' E 023°46'0 0.0
2016-Jul-27 08:33N 37°49' E 023°46'0 0.0
2016-Jul-27 07:33N 37°49' E 023°46'0 0.0
2016-Jul-27 06:33N 37°49' E 023°46'0 0.0
2016-Jul-27 05:33N 37°49' E 023°46'0 0.0
2016-Jul-27 04:33N 37°49' E 023°46'0 0.0
2016-Jul-27 03:33N 37°49' E 023°46'0 0.0
2016-Jul-27 02:33N 37°49' E 023°46'0 0.0
2016-Jul-27 01:33N 37°49' E 023°46'0 0.0
2016-Jul-27 00:33N 37°49' E 023°46'0 0.0
2016-Jul-26 23:33N 37°49' E 023°46'0 0.0
2016-Jul-26 22:33N 37°49' E 023°46'0 0.0
2016-Jul-26 21:33N 37°49' E 023°46'0 0.0
2016-Jul-26 20:33N 37°49' E 023°46'0 0.0
2016-Jul-26 19:33N 37°49' E 023°46'0 0.0
2016-Jul-26 18:33N 37°49' E 023°46'0 0.0
2016-Jul-26 17:33N 37°49' E 023°46'5 4.7
2016-Jul-26 16:33N 37°44' E 023°45'10 9.7
2016-Jul-26 15:33N 37°35' E 023°39'  

Dump ship's entire track history